Time;durP1;ratioP1;P1;durP2;ratioP2;P2;SDS_P1;SDS_P2;PMS_P1;PMS_P2;Temp;Humidity;BMP_temperature;BMP_pressure;BME280_temperature;BME280_humidity;BME280_pressure;Samples;Min_cycle;Max_cycle;Signal;HPM_P1;HPM_P2
2023/09/10 00:02:08;;;;;;;;;;;;;;;-144.99;100.00;52146.44;4982821;28;20373;-67
2023/09/10 00:04:34;;;;;;;;;;;;;;;-144.99;100.00;52146.44;4979372;28;21360;-67
2023/09/10 00:07:01;;;;;;;;;;;;;;;-144.99;100.00;52166.81;4977868;28;20381;-67
2023/09/10 00:09:27;;;;;;;;;;;;;;;-144.99;100.00;52187.19;4979964;28;20062;-66
2023/09/10 00:11:54;;;;;;;;;;;;;;;-144.99;100.00;52160.72;4979253;28;20036;-69
2023/09/10 00:14:21;;;;;;;;;;;;;;;-144.99;100.00;52191.28;4983353;28;19989;-65
2023/09/10 00:16:48;;;;;;;;;;;;;;;-144.99;100.00;52130.13;4980364;28;20027;-64
2023/09/10 00:19:15;;;;;;;;;;;;;;;-144.99;100.00;52158.66;4977722;28;20032;-65
2023/09/10 00:21:42;;;;;;;;;;;;;;;-144.99;100.00;52164.78;4978417;28;19992;-64
2023/09/10 00:24:10;;;;;;;;;;;;;;;-144.99;100.00;52166.81;4978570;28;20055;-66
2023/09/10 00:26:37;;;;;;;;;;;;;;;-144.99;100.00;52146.44;4979144;28;19947;-62
2023/09/10 00:29:03;;;;;;;;;;;;;;;-144.99;100.00;52166.81;4977533;28;19990;-67
2023/09/10 00:31:33;;;;;;;;;;;;;;;-144.99;100.00;52146.44;4984336;28;20540;-68
2023/09/10 00:33:59;;;;;;;;;;;;;;;-144.99;100.00;52166.81;4978591;28;20532;-68
2023/09/10 00:36:26;;;;;;;;;;;;;;;-144.99;100.00;52160.72;4979381;28;20323;-69
2023/09/10 00:38:52;;;;;;;;;;;;;;;-144.99;100.00;52177.00;4981345;28;20409;-63
2023/09/10 00:41:19;;;;;;;;;;;;;;;-144.99;100.00;52191.28;4979082;28;20069;-68
2023/09/10 00:43:45;;;;;;;;;;;;;;;-144.99;100.00;52174.97;4976740;28;20271;-65
2023/09/10 00:46:12;;;;;;;;;;;;;;;-144.99;100.00;52191.28;4994345;28;20026;-66
2023/09/10 00:48:39;;;;;;;;;;;;;;;-144.99;100.00;52138.28;4988263;28;20489;-66
2023/09/10 00:51:06;;;;;;;;;;;;;;;-144.99;100.00;52170.91;4987908;28;19945;-66
2023/09/10 00:53:33;;;;;;;;;;;;;;;-144.99;100.00;52174.97;4987219;28;19962;-66
2023/09/10 00:55:59;;;;;;;;;;;;;;;-144.99;100.00;52177.00;4985942;28;20013;-66
2023/09/10 00:58:28;;;;;;;;;;;;;;;-144.99;100.00;52195.34;4988530;28;20513;-65
2023/09/10 01:00:54;;;;;;;;;;;;;;;-144.99;100.00;52191.28;4986615;28;19985;-65
2023/09/10 01:03:21;;;;;;;;;;;;;;;-144.99;100.00;52199.44;4984252;28;20044;-65
2023/09/10 01:05:49;;;;;;;;;;;;;;;-144.99;100.00;52195.34;4981627;28;19971;-65
2023/09/10 01:08:15;;;;;;;;;;;;;;;-144.99;100.00;52183.13;4978650;28;20446;-66
2023/09/10 01:10:44;;;;;;;;;;;;;;;-144.99;100.00;52170.91;4977329;28;19953;-66
2023/09/10 01:13:13;;;;;;;;;;;;;;;-144.99;100.00;52205.53;4978703;28;20048;-66
2023/09/10 01:15:44;;;;;;;;;;;;;;;-144.99;100.00;52162.75;4977748;28;19944;-69
2023/09/10 01:18:14;;;;;;;;;;;;;;;-144.99;100.00;52179.06;4662446;23;10001539;-64
2023/09/10 01:20:57;;;;;;;;;;;;;;;-144.99;100.00;52174.97;4995060;28;20063;-65
2023/09/10 01:23:29;;;;;;;;;;;;;;;-144.99;100.00;52195.34;4986448;28;20008;-67
2023/09/10 01:25:57;;;;;;;;;;;;;;;-144.99;100.00;52185.16;4981236;28;19946;-68
2023/09/10 01:28:24;;;;;;;;;;;;;;;-144.99;100.00;52154.59;4979365;28;19973;-67
2023/09/10 01:30:50;;;;;;;;;;;;;;;-144.99;100.00;52183.13;4982824;28;20007;-65
2023/09/10 01:33:21;;;;;;;;;;;;;;;-144.99;100.00;52199.44;4987175;28;20075;-65
2023/09/10 01:35:51;;;;;;;;;;;;;;;-144.99;100.00;52166.81;4984512;28;19950;-65
2023/09/10 01:38:21;;;;;;;;;;;;;;;-144.99;100.00;52199.44;4984098;28;19939;-65
2023/09/10 01:40:53;;;;;;;;;;;;;;;-144.99;100.00;52170.91;4982368;28;20031;-65
2023/09/10 01:43:21;;;;;;;;;;;;;;;-144.99;100.00;52183.13;4979611;28;20062;-67
2023/09/10 01:45:48;;;;;;;;;;;;;;;-144.99;100.00;52174.97;4980837;28;20394;-67
2023/09/10 01:48:15;;;;;;;;;;;;;;;-144.99;100.00;52203.50;4978986;28;20007;-66
2023/09/10 01:50:43;;;;;;;;;;;;;;;-144.99;100.00;52170.91;4981619;28;19977;-67
2023/09/10 01:53:09;;;;;;;;;;;;;;;-144.99;100.00;52191.28;4981293;28;20429;-64
2023/09/10 01:55:36;;;;;;;;;;;;;;;-144.99;100.00;52201.47;4986662;28;20312;-65
2023/09/10 01:58:03;;;;;;;;;;;;;;;-144.99;100.00;52187.19;4979778;28;19946;-65
2023/09/10 02:00:31;;;;;;;;;;;;;;;-144.99;100.00;52213.69;4979984;28;20037;-68
2023/09/10 02:02:57;;;;;;;;;;;;;;;-144.99;100.00;52174.97;4981160;28;20115;-65
2023/09/10 02:05:23;;;;;;;;;;;;;;;-144.99;100.00;52183.13;4981000;28;20045;-65
2023/09/10 02:07:50;;;;;;;;;;;;;;;-144.99;100.00;52199.44;4980389;28;19976;-65
2023/09/10 02:10:16;;;;;;;;;;;;;;;-144.99;100.00;52146.44;4979976;28;20063;-65
2023/09/10 02:12:43;;;;;;;;;;;;;;;-144.99;100.00;52170.91;4978860;28;20396;-65
2023/09/10 02:15:11;;;;;;;;;;;;;;;-144.99;100.00;52215.75;4979557;28;20467;-66
2023/09/10 02:17:38;;;;;;;;;;;;;;;-144.99;100.00;52191.28;4981328;28;20408;-64
2023/09/10 02:20:09;;;;;;;;;;;;;;;-144.99;100.00;52170.91;4988199;28;20073;-64
2023/09/10 02:22:36;;;;;;;;;;;;;;;-144.99;100.00;52154.59;4983081;28;19956;-65
2023/09/10 02:25:03;;;;;;;;;;;;;;;-144.99;100.00;52205.53;4983679;28;19960;-64
2023/09/10 02:27:30;;;;;;;;;;;;;;;-144.99;100.00;52195.34;4983784;28;19929;-64
2023/09/10 02:29:56;;;;;;;;;;;;;;;-144.99;100.00;52174.97;4979055;28;20016;-65
2023/09/10 02:32:23;;;;;;;;;;;;;;;-144.99;100.00;52191.28;4979510;28;20509;-64
2023/09/10 02:34:52;;;;;;;;;;;;;;;-144.99;100.00;52236.13;4979621;28;20042;-65
2023/09/10 02:37:19;;;;;;;;;;;;;;;-144.99;100.00;52199.44;4987123;28;20072;-64
2023/09/10 02:39:45;;;;;;;;;;;;;;;-144.99;100.00;52187.19;4986663;28;20470;-64
2023/09/10 02:42:11;;;;;;;;;;;;;;;-144.99;100.00;52179.06;4982336;28;20435;-67
2023/09/10 02:44:38;;;;;;;;;;;;;;;-144.99;100.00;52199.44;4984212;28;20284;-65
2023/09/10 02:47:04;;;;;;;;;;;;;;;-144.99;100.00;52183.13;4984183;28;19985;-68
2023/09/10 02:49:31;;;;;;;;;;;;;;;-144.99;100.00;52170.91;4989135;28;19956;-68
2023/09/10 02:51:59;;;;;;;;;;;;;;;-144.99;100.00;52193.31;4989080;28;20011;-69
2023/09/10 02:54:25;;;;;;;;;;;;;;;-144.99;100.00;52203.50;4979906;28;19985;-68
2023/09/10 02:56:52;;;;;;;;;;;;;;;-144.99;100.00;52207.59;4983224;28;20142;-70
2023/09/10 02:59:20;;;;;;;;;;;;;;;-144.99;100.00;52166.81;4979787;28;20166;-70
2023/09/10 03:01:46;;;;;;;;;;;;;;;-144.99;100.00;52195.34;4982073;28;20429;-72
2023/09/10 03:04:12;;;;;;;;;;;;;;;-144.99;100.00;52191.28;4980225;28;20437;-66
2023/09/10 03:06:39;;;;;;;;;;;;;;;-144.99;100.00;52201.47;4981947;28;19948;-65
2023/09/10 03:09:07;;;;;;;;;;;;;;;-144.99;100.00;52215.75;4989204;28;20448;-66
2023/09/10 03:11:35;;;;;;;;;;;;;;;-144.99;100.00;52140.31;4980931;28;20373;-67
2023/09/10 03:14:02;;;;;;;;;;;;;;;-144.99;100.00;52223.88;4981106;28;20434;-66
2023/09/10 03:16:29;;;;;;;;;;;;;;;-144.99;100.00;52170.91;4980426;28;19942;-65
2023/09/10 03:18:55;;;;;;;;;;;;;;;-144.99;100.00;52191.28;4978095;28;19953;-64
2023/09/10 03:21:22;;;;;;;;;;;;;;;-144.99;100.00;52223.88;4977237;28;19973;-66
2023/09/10 03:23:48;;;;;;;;;;;;;;;-144.99;100.00;52187.19;4979673;28;20444;-63
2023/09/10 03:26:16;;;;;;;;;;;;;;;-144.99;100.00;52177.00;4979579;28;19943;-63
2023/09/10 03:28:42;;;;;;;;;;;;;;;-144.99;100.00;52199.44;4979683;28;19977;-65
2023/09/10 03:31:09;;;;;;;;;;;;;;;-144.99;100.00;52191.28;4977935;28;20040;-63
2023/09/10 03:33:36;;;;;;;;;;;;;;;-144.99;100.00;52189.25;4978408;28;20372;-61
2023/09/10 03:36:02;;;;;;;;;;;;;;;-144.99;100.00;52199.44;4978516;28;20101;-62
2023/09/10 03:38:29;;;;;;;;;;;;;;;-144.99;100.00;52215.75;4977249;28;19938;-65
2023/09/10 03:40:55;;;;;;;;;;;;;;;-144.99;100.00;52191.28;4986196;28;19945;-61
2023/09/10 03:43:23;;;;;;;;;;;;;;;-144.99;100.00;52213.69;4980635;28;19999;-64
2023/09/10 03:45:50;;;;;;;;;;;;;;;-144.99;100.00;52207.59;4977413;28;19948;-63
2023/09/10 03:48:16;;;;;;;;;;;;;;;-144.99;100.00;52215.75;4982447;28;20034;-64
2023/09/10 03:50:43;;;;;;;;;;;;;;;-144.99;100.00;52203.50;4987070;28;20052;-62
2023/09/10 03:53:09;;;;;;;;;;;;;;;-144.99;100.00;52170.91;4984408;28;19999;-62
2023/09/10 03:55:36;;;;;;;;;;;;;;;-144.99;100.00;52195.34;4984375;28;20452;-65
2023/09/10 03:58:02;;;;;;;;;;;;;;;-144.99;100.00;52207.59;4981879;28;20061;-63
2023/09/10 04:00:30;;;;;;;;;;;;;;;-144.99;100.00;52187.19;4977597;28;20103;-62
2023/09/10 04:02:56;;;;;;;;;;;;;;;-144.99;100.00;52207.59;4978400;28;20447;-64
2023/09/10 04:05:23;;;;;;;;;;;;;;;-144.99;100.00;52187.19;4979847;28;19957;-64
2023/09/10 04:07:50;;;;;;;;;;;;;;;-144.99;100.00;52203.50;4982042;28;19949;-68
2023/09/10 04:10:16;;;;;;;;;;;;;;;-144.99;100.00;52166.81;4985026;28;20498;-67
2023/09/10 04:12:43;;;;;;;;;;;;;;;-144.99;100.00;52179.06;4985067;28;20006;-66
2023/09/10 04:15:10;;;;;;;;;;;;;;;-144.99;100.00;52142.38;4985372;28;20354;-66
2023/09/10 04:17:38;;;;;;;;;;;;;;;-144.99;100.00;52189.25;4982476;28;19955;-67
2023/09/10 04:20:07;;;;;;;;;;;;;;;-144.99;100.00;52215.75;4980408;28;19992;-67
2023/09/10 04:22:34;;;;;;;;;;;;;;;-144.99;100.00;52219.81;4983165;28;19970;-66
2023/09/10 04:25:00;;;;;;;;;;;;;;;-144.99;100.00;52195.34;4979315;28;19991;-67
2023/09/10 04:27:27;;;;;;;;;;;;;;;-144.99;100.00;52195.34;4981247;28;19968;-62
2023/09/10 04:29:54;;;;;;;;;;;;;;;-144.99;100.00;52199.44;4980639;28;20072;-61
2023/09/10 04:32:21;;;;;;;;;;;;;;;-144.99;100.00;52170.91;4981949;28;19963;-60
2023/09/10 04:34:48;;;;;;;;;;;;;;;-144.99;100.00;52187.19;4986882;28;20212;-61
2023/09/10 04:37:15;;;;;;;;;;;;;;;-144.99;100.00;52197.41;4979788;28;20024;-62
2023/09/10 04:39:41;;;;;;;;;;;;;;;-144.99;100.00;52236.13;4983681;28;20007;-62
2023/09/10 04:42:08;;;;;;;;;;;;;;;-144.99;100.00;52227.97;4980363;28;20018;-62
2023/09/10 04:44:35;;;;;;;;;;;;;;;-144.99;100.00;52227.97;4988794;28;19943;-65
2023/09/10 04:47:02;;;;;;;;;;;;;;;-144.99;100.00;52215.75;4991048;28;20357;-62
2023/09/10 04:49:28;;;;;;;;;;;;;;;-144.99;100.00;52236.13;4988596;28;19942;-64
2023/09/10 04:51:56;;;;;;;;;;;;;;;-144.99;100.00;52199.44;4989360;28;19996;-66
2023/09/10 04:54:23;;;;;;;;;;;;;;;-144.99;100.00;52181.09;4985131;28;20042;-65
2023/09/10 04:56:53;;;;;;;;;;;;;;;-144.99;100.00;52170.91;4980913;28;20370;-67
2023/09/10 04:59:20;;;;;;;;;;;;;;;-144.99;100.00;52199.44;4981201;28;19942;-66
2023/09/10 05:01:46;;;;;;;;;;;;;;;-144.99;100.00;52203.50;4980726;28;19941;-67
2023/09/10 05:04:13;;;;;;;;;;;;;;;-144.99;100.00;52199.44;4979620;28;20340;-66
2023/09/10 05:06:39;;;;;;;;;;;;;;;-144.99;100.00;52195.34;4981057;28;19948;-67
2023/09/10 05:09:08;;;;;;;;;;;;;;;-144.99;100.00;52211.66;4985016;28;19993;-69
2023/09/10 05:11:34;;;;;;;;;;;;;;;-144.99;100.00;52211.66;4981945;28;20048;-66
2023/09/10 05:14:01;;;;;;;;;;;;;;;-144.99;100.00;52252.44;4987585;28;20016;-62
2023/09/10 05:16:27;;;;;;;;;;;;;;;-144.99;100.00;52203.50;4979370;28;20049;-63
2023/09/10 05:18:54;;;;;;;;;;;;;;;-144.99;100.00;52197.41;4977975;28;20647;-64
2023/09/10 05:21:21;;;;;;;;;;;;;;;-144.99;100.00;52252.44;4977151;28;20064;-68
2023/09/10 05:23:47;;;;;;;;;;;;;;;-144.99;100.00;52236.13;4979893;28;19955;-70
2023/09/10 05:26:15;;;;;;;;;;;;;;;-144.99;100.00;52240.19;4977558;28;19981;-63
2023/09/10 05:28:41;;;;;;;;;;;;;;;-144.99;100.00;52195.34;4977955;28;19940;-63
2023/09/10 05:31:08;;;;;;;;;;;;;;;-144.99;100.00;52223.88;4974429;28;19964;-64
2023/09/10 05:33:35;;;;;;;;;;;;;;;-144.99;100.00;52201.47;4977858;28;19960;-65
2023/09/10 05:36:02;;;;;;;;;;;;;;;-144.99;100.00;52225.94;4977670;28;20497;-64
2023/09/10 05:38:28;;;;;;;;;;;;;;;-144.99;100.00;52207.59;4977724;28;20026;-64
2023/09/10 05:40:55;;;;;;;;;;;;;;;-144.99;100.00;52219.81;4978278;28;19952;-65
2023/09/10 05:43:23;;;;;;;;;;;;;;;-144.99;100.00;52211.66;4987828;28;19958;-64
2023/09/10 05:45:51;;;;;;;;;;;;;;;-144.99;100.00;52215.75;4979628;28;19962;-64
2023/09/10 05:48:18;;;;;;;;;;;;;;;-144.99;100.00;52207.59;4982474;28;20080;-63
2023/09/10 05:50:44;;;;;;;;;;;;;;;-144.99;100.00;52223.88;4977141;28;19964;-63
2023/09/10 05:53:10;;;;;;;;;;;;;;;-144.99;100.00;52213.69;4981104;28;20088;-65
2023/09/10 05:55:41;;;;;;;;;;;;;;;-144.99;100.00;52211.66;4976182;28;20410;-65
2023/09/10 05:58:07;;;;;;;;;;;;;;;-144.99;100.00;52211.66;4977300;28;20052;-65
2023/09/10 06:00:35;;;;;;;;;;;;;;;-144.99;100.00;52195.34;4976257;28;20026;-64
2023/09/10 06:03:02;;;;;;;;;;;;;;;-144.99;100.00;52213.69;4977357;28;20043;-65
2023/09/10 06:05:28;;;;;;;;;;;;;;;-144.99;100.00;52203.50;4975825;28;19974;-65
2023/09/10 06:07:55;;;;;;;;;;;;;;;-144.99;100.00;52217.78;4975921;28;20077;-64
2023/09/10 06:10:21;;;;;;;;;;;;;;;-144.99;100.00;52211.66;4978749;28;20061;-65
2023/09/10 06:12:48;;;;;;;;;;;;;;;-144.99;100.00;52227.97;4975061;28;21420;-67
2023/09/10 06:15:14;;;;;;;;;;;;;;;-144.99;100.00;52205.53;4972676;28;20047;-66
2023/09/10 06:17:42;;;;;;;;;;;;;;;-144.99;100.00;52154.59;4976722;28;19945;-66
2023/09/10 06:20:09;;;;;;;;;;;;;;;-144.99;100.00;52225.94;4974439;28;20033;-67
2023/09/10 06:22:36;;;;;;;;;;;;;;;-144.99;100.00;52236.13;4977500;28;19980;-67
2023/09/10 06:25:02;;;;;;;;;;;;;;;-144.99;100.00;52187.19;4975718;28;20141;-69
2023/09/10 06:27:29;;;;;;;;;;;;;;;-144.99;100.00;52219.81;4976114;28;19954;-68
2023/09/10 06:29:55;;;;;;;;;;;;;;;-144.99;100.00;52215.75;4974234;28;20026;-68
2023/09/10 06:32:21;;;;;;;;;;;;;;;-144.99;100.00;52209.63;4975470;28;20045;-66
2023/09/10 06:34:49;;;;;;;;;;;;;;;-144.99;100.00;52244.28;4977208;28;20377;-65
2023/09/10 06:37:16;;;;;;;;;;;;;;;-144.99;100.00;52203.50;4980580;28;20484;-66
2023/09/10 06:39:42;;;;;;;;;;;;;;;-144.99;100.00;52252.44;4983162;28;19984;-61
2023/09/10 06:42:11;;;;;;;;;;;;;;;-144.99;100.00;52223.88;4971844;28;20508;-63
2023/09/10 06:44:38;;;;;;;;;;;;;;;-144.99;100.00;52199.44;4986724;28;20010;-63
2023/09/10 06:47:05;;;;;;;;;;;;;;;-144.99;100.00;52227.97;4981110;28;20007;-62
2023/09/10 06:49:31;;;;;;;;;;;;;;;-144.99;100.00;52215.75;4988215;28;19938;-61
2023/09/10 06:51:59;;;;;;;;;;;;;;;-144.99;100.00;52221.84;4984305;28;20033;-64
2023/09/10 06:54:26;;;;;;;;;;;;;;;-144.99;100.00;52240.19;4976793;28;20031;-63
2023/09/10 06:56:52;;;;;;;;;;;;;;;-144.99;100.00;52244.28;4971739;28;20264;-65
2023/09/10 06:59:19;;;;;;;;;;;;;;;-144.99;100.00;52223.88;4973466;28;20029;-65
2023/09/10 07:01:45;;;;;;;;;;;;;;;-144.99;100.00;52199.44;4973573;28;20576;-64
2023/09/10 07:04:18;;;;;;;;;;;;;;;-144.99;100.00;52252.44;4969242;28;20448;-64
2023/09/10 07:06:45;;;;;;;;;;;;;;;-144.99;100.00;52195.34;4972805;28;19949;-65
2023/09/10 07:09:12;;;;;;;;;;;;;;;-144.99;100.00;52203.50;4974775;28;20042;-61
2023/09/10 07:11:39;;;;;;;;;;;;;;;-144.99;100.00;52174.97;4972470;28;19991;-62
2023/09/10 07:14:05;;;;;;;;;;;;;;;-144.99;100.00;52211.66;4971008;28;20021;-59
2023/09/10 07:16:33;;;;;;;;;;;;;;;-144.99;100.00;52232.03;4969277;28;20083;-60
2023/09/10 07:19:00;;;;;;;;;;;;;;;-144.99;100.00;52203.50;4978874;28;19940;-60
2023/09/10 07:21:26;;;;;;;;;;;;;;;-144.99;100.00;52223.88;4992935;23;20021;-63
2023/09/10 07:23:53;;;;;;;;;;;;;;;-144.99;100.00;52183.13;4978346;28;20051;-62
2023/09/10 07:26:21;;;;;;;;;;;;;;;-144.99;100.00;52211.66;4977907;28;19936;-63
2023/09/10 07:28:47;;;;;;;;;;;;;;;-144.99;100.00;52203.50;4980969;28;19939;-64
2023/09/10 07:31:14;;;;;;;;;;;;;;;-144.99;100.00;52185.16;4981276;28;19980;-66
2023/09/10 07:33:40;;;;;;;;;;;;;;;-144.99;100.00;52232.03;4976812;28;20084;-68
2023/09/10 07:36:07;;;;;;;;;;;;;;;-144.99;100.00;52223.88;4979296;28;20403;-66
2023/09/10 07:38:33;;;;;;;;;;;;;;;-144.99;100.00;52219.81;4979128;28;19947;-66
2023/09/10 07:40:59;;;;;;;;;;;;;;;-144.99;100.00;52215.75;4977685;28;20065;-66
2023/09/10 07:43:27;;;;;;;;;;;;;;;-144.99;100.00;52203.50;4975511;28;20419;-67
2023/09/10 07:45:54;;;;;;;;;;;;;;;-144.99;100.00;52199.44;4979244;28;20487;-65
2023/09/10 07:48:20;;;;;;;;;;;;;;;-144.99;100.00;52183.13;4979731;28;19947;-65
2023/09/10 07:50:53;;;;;;;;;;;;;;;-144.99;100.00;52199.44;4989476;28;19999;-65
2023/09/10 07:53:20;;;;;;;;;;;;;;;-144.99;100.00;52207.59;4980140;28;19962;-65
2023/09/10 07:55:46;;;;;;;;;;;;;;;-144.99;100.00;52174.97;4978643;28;20103;-63
2023/09/10 07:58:13;;;;;;;;;;;;;;;-144.99;100.00;52174.97;4976541;28;20070;-63
2023/09/10 08:00:40;;;;;;;;;;;;;;;-144.99;100.00;52195.34;4978121;28;20041;-64
2023/09/10 08:03:07;;;;;;;;;;;;;;;-144.99;100.00;52187.19;4980454;28;20042;-66
2023/09/10 08:05:34;;;;;;;;;;;;;;;-144.99;100.00;52181.09;4982886;28;19940;-67
2023/09/10 08:08:02;;;;;;;;;;;;;;;-144.99;100.00;52195.34;4985084;28;20510;-67
2023/09/10 08:10:29;;;;;;;;;;;;;;;-144.99;100.00;52215.75;4983711;28;19987;-68
2023/09/10 08:12:56;;;;;;;;;;;;;;;-144.99;100.00;52166.81;4986832;28;20475;-69
2023/09/10 08:15:22;;;;;;;;;;;;;;;-144.99;99.64;52203.50;4989134;28;20032;-68
2023/09/10 08:17:51;;;;;;;;;;;;;;;-144.99;98.75;52183.13;4980599;28;19972;-68
2023/09/10 08:20:17;;;;;;;;;;;;;;;-144.99;98.16;52211.66;4982572;28;20070;-69
2023/09/10 08:22:44;;;;;;;;;;;;;;;-144.99;96.89;52138.28;4979889;28;19961;-69
2023/09/10 08:25:10;;;;;;;;;;;;;;;-144.99;96.08;52164.78;4980788;28;19942;-69
2023/09/10 08:27:37;;;;;;;;;;;;;;;-144.99;95.60;52162.75;4989323;28;19982;-68
2023/09/10 08:30:03;;;;;;;;;;;;;;;-144.99;94.51;52179.06;4978232;28;20242;-68
2023/09/10 08:32:30;;;;;;;;;;;;;;;-144.99;93.88;52093.44;4977586;28;20386;-68
2023/09/10 08:34:58;;;;;;;;;;;;;;;-144.99;92.35;52174.97;4979240;28;20039;-68
2023/09/10 08:37:24;;;;;;;;;;;;;;;-144.99;92.10;52162.75;4977720;28;19961;-69
2023/09/10 08:39:51;;;;;;;;;;;;;;;-144.99;91.05;52146.44;4978995;28;19942;-68
2023/09/10 08:42:21;;;;;;;;;;;;;;;-144.99;89.92;52138.28;4983879;28;20036;-65
2023/09/10 08:44:50;;;;;;;;;;;;;;;-144.99;88.35;52121.97;4994919;28;19938;-65
2023/09/10 08:47:18;;;;;;;;;;;;;;;-144.99;86.98;52128.09;4988174;28;19980;-65
2023/09/10 08:49:47;;;;;;;;;;;;;;;-144.99;86.72;52134.22;4981700;28;20441;-64
2023/09/10 08:52:16;;;;;;;;;;;;;;;-144.99;85.65;52124.03;4988869;28;20299;-64
2023/09/10 08:54:42;;;;;;;;;;;;;;;-144.99;85.23;52109.75;4980366;28;19988;-64
2023/09/10 08:57:09;;;;;;;;;;;;;;;-144.99;84.94;52073.06;4977259;28;19984;-70
2023/09/10 08:59:36;;;;;;;;;;;;;;;-144.99;84.37;52111.78;4984706;28;19948;-70
2023/09/10 09:02:03;;;;;;;;;;;;;;;-144.99;83.04;52156.63;4990824;28;20424;-70
2023/09/10 09:04:30;;;;;;;;;;;;;;;-144.99;82.35;52113.84;4983226;28;19945;-71
2023/09/10 09:06:58;;;;;;;;;;;;;;;-144.99;81.41;52081.22;4989901;28;20396;-70
2023/09/10 09:09:31;;;;;;;;;;;;;;;-144.99;80.49;52124.03;4987039;28;19944;-71
2023/09/10 09:11:59;;;;;;;;;;;;;;;-144.99;80.20;52071.03;4986836;28;19958;-71
2023/09/10 09:14:27;;;;;;;;;;;;;;;-144.99;79.03;52105.69;4987531;28;19995;-70
2023/09/10 09:16:54;;;;;;;;;;;;;;;-144.99;77.82;52113.84;4988329;28;19942;-71
2023/09/10 09:19:22;;;;;;;;;;;;;;;-144.99;78.40;52071.03;4980759;28;20355;-69
2023/09/10 09:21:50;;;;;;;;;;;;;;;-144.99;77.65;52081.22;4993717;28;20044;-69
2023/09/10 09:24:17;;;;;;;;;;;;;;;-144.99;76.19;52089.38;5007258;28;19973;-69
2023/09/10 09:26:45;;;;;;;;;;;;;;;-144.99;75.39;52117.91;4981584;28;19987;-70
2023/09/10 09:29:11;;;;;;;;;;;;;;;-144.99;75.31;52081.22;4990542;28;19980;-69
2023/09/10 09:31:38;;;;;;;;;;;;;;;-144.99;74.56;52101.59;4983767;28;19964;-71
2023/09/10 09:34:05;;;;;;;;;;;;;;;-144.99;73.77;52097.53;4994294;28;19960;-70
2023/09/10 09:36:36;;;;;;;;;;;;;;;-144.99;72.93;52040.47;4986612;28;20029;-70
2023/09/10 09:39:04;;;;;;;;;;;;;;;-144.99;71.69;52028.22;4981135;28;19948;-69
2023/09/10 09:41:34;;;;;;;;;;;;;;;-144.99;70.70;52044.53;4996139;28;20408;-70
2023/09/10 09:44:02;;;;;;;;;;;;;;;-144.99;70.10;52003.78;4986130;28;20049;-69
2023/09/10 09:46:31;;;;;;;;;;;;;;;-144.99;69.33;52003.78;4983310;28;19945;-69
2023/09/10 09:48:58;;;;;;;;;;;;;;;-144.99;68.75;52026.19;4985190;28;20027;-69
2023/09/10 09:51:24;;;;;;;;;;;;;;;-144.99;67.89;52044.53;4988283;28;20069;-68
2023/09/10 09:53:51;;;;;;;;;;;;;;;-144.99;67.36;52018.03;4987864;28;19958;-69
2023/09/10 09:56:18;;;;;;;;;;;;;;;-144.99;66.73;52032.31;4987449;28;20035;-67
2023/09/10 09:58:45;;;;;;;;;;;;;;;-144.99;66.44;51979.31;4993057;28;19946;-68
2023/09/10 10:01:13;;;;;;;;;;;;;;;-144.99;65.84;52020.09;5007401;28;19945;-70
2023/09/10 10:03:40;;;;;;;;;;;;;;;-144.99;65.23;51999.69;5002680;28;20444;-68
2023/09/10 10:06:07;;;;;;;;;;;;;;;-144.99;64.18;51995.63;4995305;28;20377;-69
2023/09/10 10:08:33;;;;;;;;;;;;;;;-144.99;64.31;51999.69;4996096;28;19964;-68
2023/09/10 10:11:00;;;;;;;;;;;;;;;-144.99;63.80;51987.47;4988794;28;20040;-68
2023/09/10 10:13:27;;;;;;;;;;;;;;;-144.99;63.10;51942.63;4991661;28;19991;-69
2023/09/10 10:15:54;;;;;;;;;;;;;;;-144.99;62.60;51956.91;4990111;28;19985;-69
2023/09/10 10:18:22;;;;;;;;;;;;;;;-144.99;61.88;51950.78;4997616;28;19945;-69
2023/09/10 10:20:50;;;;;;;;;;;;;;;-144.99;61.49;51928.38;4980615;28;20044;-68
2023/09/10 10:23:17;;;;;;;;;;;;;;;-144.99;60.87;51928.38;4980573;28;20076;-68
2023/09/10 10:25:44;;;;;;;;;;;;;;;-144.99;60.28;51934.50;4979391;28;20026;-69
2023/09/10 10:28:12;;;;;;;;;;;;;;;-144.99;60.18;51869.28;4999270;28;19944;-69
2023/09/10 10:30:39;;;;;;;;;;;;;;;-144.99;59.72;51905.97;4991348;28;19953;-69
2023/09/10 10:33:08;;;;;;;;;;;;;;;-144.99;59.68;51905.97;4990909;28;20353;-69
2023/09/10 10:35:37;;;;;;;;;;;;;;;-144.99;59.44;51912.06;5004888;28;19967;-69
2023/09/10 10:38:05;;;;;;;;;;;;;;;-144.99;59.11;51903.91;4993490;28;20048;-72
2023/09/10 10:40:32;;;;;;;;;;;;;;;-144.99;59.13;51895.75;5008193;28;20248;-68
2023/09/10 10:43:03;;;;;;;;;;;;;;;-144.99;58.72;51885.56;4987527;28;20009;-67
2023/09/10 10:45:31;;;;;;;;;;;;;;;-144.99;58.34;51832.59;4990580;28;19936;-68
2023/09/10 10:48:00;;;;;;;;;;;;;;;-144.99;58.13;51861.13;4988516;28;20124;-68
2023/09/10 10:50:27;;;;;;;;;;;;;;;-144.99;58.16;51865.19;4989622;28;20300;-70
2023/09/10 10:52:59;;;;;;;;;;;;;;;-144.99;57.98;51840.75;4987998;28;20014;-70
2023/09/10 10:55:27;;;;;;;;;;;;;;;-144.99;57.69;51832.59;4993143;28;19972;-68
2023/09/10 10:57:54;;;;;;;;;;;;;;;-144.99;57.71;51816.28;4982855;28;20379;-68
2023/09/10 11:00:21;;;;;;;;;;;;;;;-144.99;57.26;51832.59;4999584;28;20406;-69
2023/09/10 11:02:49;;;;;;;;;;;;;;;-144.99;57.18;51820.38;4989420;28;19975;-68
2023/09/10 11:05:15;;;;;;;;;;;;;;;-144.99;57.24;51820.38;4994263;28;19990;-68
2023/09/10 11:07:41;;;;;;;;;;;;;;;-144.99;56.58;51814.25;4987820;28;20401;-69
2023/09/10 11:10:27;;;;;;;;;;;;;;;-144.99;56.17;51795.91;4994120;28;20355;-69
2023/09/10 11:13:07;;;;;;;;;;;;;;;-144.99;56.47;51791.84;4987359;28;20037;-68
2023/09/10 11:15:34;;;;;;;;;;;;;;;-144.99;56.27;51799.97;4995493;28;19956;-69
2023/09/10 11:18:15;;;;;;;;;;;;;;;-144.99;55.97;51779.59;5017043;28;20127;-69
2023/09/10 11:20:49;;;;;;;;;;;;;;;-144.99;56.28;51755.16;4995369;28;20150;-69
2023/09/10 11:23:15;;;;;;;;;;;;;;;-144.99;55.99;51795.91;4994793;28;19959;-68
2023/09/10 11:25:42;;;;;;;;;;;;;;;-144.99;56.00;51783.69;4987755;28;19943;-69
2023/09/10 11:28:39;;;;;;;;;;;;;;;-144.99;55.89;51787.75;4991591;28;19978;-69
2023/09/10 11:31:27;;;;;;;;;;;;;;;-144.99;56.13;51777.56;4988797;28;19942;-69
2023/09/10 11:33:56;;;;;;;;;;;;;;;-144.99;56.05;51787.75;4996272;28;20396;-69
2023/09/10 11:36:26;;;;;;;;;;;;;;;-144.99;55.66;51775.53;4981729;28;20029;-69
2023/09/10 11:38:55;;;;;;;;;;;;;;;-144.99;55.87;51767.38;4987880;28;20416;-68
2023/09/10 11:41:22;;;;;;;;;;;;;;;-144.99;55.87;51791.84;4996675;28;20061;-69
2023/09/10 11:43:49;;;;;;;;;;;;;;;-144.99;55.31;51775.53;5002343;28;19957;-69
2023/09/10 11:46:17;;;;;;;;;;;;;;;-144.99;55.48;51732.72;4999843;28;19973;-69
2023/09/10 11:48:44;;;;;;;;;;;;;;;-144.99;55.12;51767.38;4985398;28;20006;-69
2023/09/10 11:51:10;;;;;;;;;;;;;;;-144.99;54.94;51744.97;4993122;28;20500;-69
2023/09/10 11:53:37;;;;;;;;;;;;;;;-144.99;54.83;51767.38;5008435;28;19984;-70
2023/09/10 11:56:03;;;;;;;;;;;;;;;-144.99;54.82;51779.59;5012773;28;19939;-70
2023/09/10 11:58:30;;;;;;;;;;;;;;;-144.99;55.42;51787.75;4995039;28;20048;-70
2023/09/10 12:00:57;;;;;;;;;;;;;;;-144.99;55.28;51779.59;4998408;28;20038;-69
2023/09/10 12:03:26;;;;;;;;;;;;;;;-144.99;55.31;51747.00;4991902;28;19955;-69
2023/09/10 12:05:52;;;;;;;;;;;;;;;-144.99;55.06;51736.81;4999834;28;20021;-68
2023/09/10 12:08:18;;;;;;;;;;;;;;;-144.99;54.48;51767.38;4996511;28;19985;-69
2023/09/10 12:10:45;;;;;;;;;;;;;;;-144.99;54.75;51718.47;4994765;28;19973;-68
2023/09/10 12:13:12;;;;;;;;;;;;;;;-144.99;54.79;51775.53;4989942;28;19957;-68
2023/09/10 12:15:39;;;;;;;;;;;;;;;-144.99;54.41;51759.22;4991072;28;19995;-69
2023/09/10 12:18:06;;;;;;;;;;;;;;;-144.99;54.64;51716.44;4992047;28;19953;-68
2023/09/10 12:20:37;;;;;;;;;;;;;;;-144.99;54.34;51734.78;4993564;28;19956;-68
2023/09/10 12:23:05;;;;;;;;;;;;;;;-144.99;54.77;51761.25;4998030;28;20315;-68